createdAt,value
2022-10-22T00:02:10.409Z,10.57
2022-10-22T00:04:37.854Z,10.88
2022-10-22T00:07:05.420Z,10.73
2022-10-22T00:09:32.815Z,11.95
2022-10-22T00:12:00.306Z,11.68
2022-10-22T00:14:27.693Z,12.32
2022-10-22T00:16:56.439Z,11.70
2022-10-22T00:19:23.812Z,12.40
2022-10-22T00:21:51.332Z,12.05
2022-10-22T00:24:18.723Z,11.77
2022-10-22T00:26:46.281Z,11.02
2022-10-22T00:29:13.823Z,11.38
2022-10-22T00:31:41.256Z,11.85
2022-10-22T00:34:08.652Z,12.18
2022-10-22T00:36:36.008Z,12.93
2022-10-22T00:39:03.483Z,12.77
2022-10-22T00:41:30.842Z,12.98
2022-10-22T00:44:03.340Z,12.38
2022-10-22T00:46:31.190Z,14.23
2022-10-22T00:49:01.268Z,12.82
2022-10-22T00:51:34.874Z,12.50
2022-10-22T00:54:07.195Z,12.50
2022-10-22T00:56:34.647Z,12.95
2022-10-22T00:59:02.952Z,12.82
2022-10-22T01:01:31.763Z,13.82
2022-10-22T01:03:59.195Z,13.20
2022-10-22T01:06:26.602Z,13.68
2022-10-22T01:08:56.750Z,12.82
2022-10-22T01:11:33.419Z,12.15
2022-10-22T01:14:00.859Z,13.05
2022-10-22T01:16:37.455Z,12.98
2022-10-22T01:19:23.245Z,14.80
2022-10-22T01:24:20.873Z,13.85
2022-10-22T01:26:54.339Z,13.10
2022-10-22T01:29:43.809Z,14.30
2022-10-22T01:32:13.501Z,13.55
2022-10-22T01:34:43.030Z,13.93
2022-10-22T01:37:11.585Z,13.77
2022-10-22T01:39:39.942Z,13.45
2022-10-22T01:42:07.591Z,13.75
2022-10-22T01:47:26.948Z,13.32
2022-10-22T01:50:12.915Z,13.02
2022-10-22T01:52:43.191Z,14.23
2022-10-22T01:55:13.642Z,14.65
2022-10-22T01:57:47.224Z,13.10
2022-10-22T02:00:15.759Z,13.43
2022-10-22T02:02:55.458Z,13.90
2022-10-22T02:05:25.510Z,13.15
2022-10-22T02:07:55.042Z,14.23
2022-10-22T02:10:23.229Z,13.27
2022-10-22T02:12:52.995Z,12.95
2022-10-22T02:15:21.252Z,13.45
2022-10-22T02:17:50.203Z,14.30
2022-10-22T02:20:19.577Z,13.35
2022-10-22T02:22:47.752Z,13.88
2022-10-22T02:25:15.244Z,14.70
2022-10-22T02:27:42.611Z,12.95
2022-10-22T02:32:56.763Z,13.70
2022-10-22T02:35:25.468Z,13.82
2022-10-22T02:37:53.896Z,12.95
2022-10-22T02:40:21.608Z,13.55
2022-10-22T02:42:50.471Z,13.40
2022-10-22T02:45:19.418Z,13.73
2022-10-22T02:47:47.208Z,22.10
2022-10-22T02:50:15.383Z,23.85
2022-10-22T02:52:43.005Z,33.60
2022-10-22T02:55:10.687Z,46.40
2022-10-22T02:57:38.350Z,24.15
2022-10-22T03:00:07.229Z,16.48
2022-10-22T03:02:34.638Z,20.65
2022-10-22T03:05:02.100Z,40.50
2022-10-22T03:07:29.439Z,37.00
2022-10-22T03:09:56.960Z,25.38
2022-10-22T03:12:24.394Z,14.07
2022-10-22T03:14:51.854Z,14.63
2022-10-22T03:17:19.225Z,13.90
2022-10-22T03:19:46.782Z,14.23
2022-10-22T03:22:16.495Z,13.80
2022-10-22T03:24:45.634Z,13.82
2022-10-22T03:27:13.881Z,14.50
2022-10-22T03:29:42.323Z,14.18
2022-10-22T03:32:09.706Z,14.23
2022-10-22T03:34:37.149Z,14.82
2022-10-22T03:37:04.548Z,14.32
2022-10-22T03:39:33.959Z,14.35
2022-10-22T03:42:01.763Z,14.10
2022-10-22T03:44:29.396Z,14.40
2022-10-22T03:47:00.055Z,14.50
2022-10-22T03:49:29.997Z,15.45
2022-10-22T03:51:57.436Z,14.57
2022-10-22T03:54:24.959Z,14.77
2022-10-22T03:56:52.403Z,14.43
2022-10-22T03:59:19.912Z,14.10
2022-10-22T04:01:47.301Z,15.52
2022-10-22T04:04:14.830Z,14.15
2022-10-22T04:06:42.235Z,14.45
2022-10-22T04:09:09.749Z,14.20
2022-10-22T04:11:37.264Z,14.23
2022-10-22T04:14:04.694Z,13.43
2022-10-22T04:16:32.901Z,14.40
2022-10-22T04:19:00.369Z,14.55
2022-10-22T04:21:27.792Z,13.88
2022-10-22T04:23:55.274Z,14.73
2022-10-22T04:26:22.643Z,14.95
2022-10-22T04:28:51.228Z,15.20
2022-10-22T04:31:19.955Z,15.77
2022-10-22T04:33:47.937Z,15.85
2022-10-22T04:36:17.035Z,15.07
2022-10-22T04:38:45.395Z,17.25
2022-10-22T04:41:14.446Z,16.05
2022-10-22T04:43:42.429Z,15.38
2022-10-22T04:46:11.176Z,15.57
2022-10-22T04:48:39.525Z,16.42
2022-10-22T04:51:07.718Z,16.30
2022-10-22T04:53:35.851Z,15.63
2022-10-22T04:56:22.807Z,16.15
2022-10-22T04:58:50.963Z,17.10
2022-10-22T05:01:18.396Z,17.35
2022-10-22T05:03:46.260Z,16.23
2022-10-22T05:06:14.835Z,17.73
2022-10-22T05:08:43.596Z,17.13
2022-10-22T05:11:21.575Z,17.48
2022-10-22T05:13:49.010Z,17.67
2022-10-22T05:16:16.488Z,17.30
2022-10-22T05:18:45.025Z,16.45
2022-10-22T05:21:14.019Z,15.35
2022-10-22T05:23:41.641Z,15.30
2022-10-22T05:26:10.345Z,16.00
2022-10-22T05:28:38.276Z,17.42
2022-10-22T05:31:05.919Z,15.43
2022-10-22T05:33:34.054Z,15.93
2022-10-22T05:36:01.998Z,15.75
2022-10-22T05:38:29.730Z,15.25
2022-10-22T05:41:04.990Z,16.42
2022-10-22T05:46:07.523Z,16.90
2022-10-22T05:51:05.459Z,16.58
2022-10-22T05:53:33.659Z,15.30
2022-10-22T05:56:05.155Z,16.13
2022-10-22T05:58:33.083Z,15.68
2022-10-22T06:01:05.106Z,16.02
2022-10-22T06:03:32.716Z,16.23
2022-10-22T06:06:05.055Z,16.40
2022-10-22T06:08:32.616Z,16.25
2022-10-22T06:11:01.451Z,15.68
2022-10-22T06:13:28.887Z,15.48
2022-10-22T06:15:56.319Z,16.48
2022-10-22T06:18:23.727Z,18.17
2022-10-22T06:20:51.166Z,18.55
2022-10-22T06:23:18.559Z,21.38
2022-10-22T06:25:45.921Z,31.10
2022-10-22T06:28:13.459Z,27.92
2022-10-22T06:30:43.049Z,25.20
2022-10-22T06:33:13.481Z,24.90
2022-10-22T06:35:40.841Z,25.00
2022-10-22T06:38:08.280Z,29.52
2022-10-22T06:40:35.717Z,26.50
2022-10-22T06:43:03.163Z,28.88
2022-10-22T06:45:30.602Z,29.45
2022-10-22T06:47:57.990Z,34.78
2022-10-22T06:50:25.517Z,29.40
2022-10-22T06:52:52.937Z,22.48
2022-10-22T06:55:20.394Z,20.95
2022-10-22T06:57:47.764Z,19.92
2022-10-22T07:00:15.277Z,19.48
2022-10-22T07:02:43.140Z,21.33
2022-10-22T07:05:10.849Z,19.27
2022-10-22T07:07:38.263Z,15.70
2022-10-22T07:10:05.901Z,16.20
2022-10-22T07:12:34.883Z,20.05
2022-10-22T07:15:02.435Z,20.88
2022-10-22T07:17:29.905Z,19.90
2022-10-22T07:19:57.326Z,16.55
2022-10-22T07:22:24.728Z,17.02
2022-10-22T07:24:52.076Z,13.98
2022-10-22T07:27:19.491Z,14.65
2022-10-22T07:29:46.921Z,14.60
2022-10-22T07:32:14.450Z,13.45
2022-10-22T07:34:43.842Z,13.43
2022-10-22T07:37:11.499Z,18.48
2022-10-22T07:39:38.940Z,14.65
2022-10-22T07:42:06.390Z,13.73
2022-10-22T07:44:33.766Z,13.82
2022-10-22T07:47:01.217Z,16.88
2022-10-22T07:49:28.663Z,14.35
2022-10-22T07:51:57.050Z,13.48
2022-10-22T07:54:24.797Z,13.18
2022-10-22T07:56:52.231Z,11.68
2022-10-22T07:59:19.783Z,11.25
2022-10-22T08:01:47.308Z,11.27
2022-10-22T08:04:14.768Z,11.90
2022-10-22T08:06:45.744Z,12.60
2022-10-22T08:09:14.925Z,11.35
2022-10-22T08:11:42.407Z,13.23
2022-10-22T08:14:09.851Z,12.55
2022-10-22T08:16:37.299Z,13.07
2022-10-22T08:19:04.802Z,13.82
2022-10-22T08:21:32.185Z,13.45
2022-10-22T08:23:59.620Z,11.73
2022-10-22T08:26:27.088Z,12.18
2022-10-22T08:28:54.519Z,12.88
2022-10-22T08:31:21.919Z,13.80
2022-10-22T08:33:49.506Z,13.50
2022-10-22T08:36:16.981Z,13.90
2022-10-22T08:38:44.436Z,13.95
2022-10-22T08:41:11.861Z,13.38
2022-10-22T08:43:39.367Z,13.70
2022-10-22T08:46:06.722Z,13.32
2022-10-22T08:48:46.499Z,13.43
2022-10-22T08:51:16.991Z,13.10
2022-10-22T08:54:03.204Z,12.23
2022-10-22T08:56:32.043Z,13.32
2022-10-22T08:59:25.925Z,13.07
2022-10-22T09:01:54.706Z,12.90
2022-10-22T09:04:27.763Z,12.93
2022-10-22T09:06:56.379Z,11.63
2022-10-22T09:09:27.768Z,12.65
2022-10-22T09:11:57.524Z,12.13
2022-10-22T09:14:25.382Z,12.73
2022-10-22T09:16:52.791Z,13.32
2022-10-22T09:19:29.386Z,12.27
2022-10-22T09:22:29.438Z,12.38
2022-10-22T09:25:00.666Z,11.25
2022-10-22T09:27:29.526Z,12.18
2022-10-22T09:29:57.099Z,12.05
2022-10-22T09:32:24.633Z,12.05
2022-10-22T09:34:56.366Z,12.30
2022-10-22T09:37:26.679Z,11.68
2022-10-22T09:39:55.023Z,10.77
2022-10-22T09:42:23.067Z,11.02
2022-10-22T09:44:58.311Z,11.48
2022-10-22T09:47:43.497Z,11.60
2022-10-22T09:50:20.990Z,13.32
2022-10-22T09:52:59.886Z,12.45
2022-10-22T09:55:27.934Z,17.13
2022-10-22T09:58:00.478Z,17.23
2022-10-22T10:00:28.743Z,19.15
2022-10-22T10:03:00.001Z,11.70
2022-10-22T10:05:30.075Z,14.57
2022-10-22T10:07:58.251Z,15.57
2022-10-22T10:10:34.000Z,9.32
2022-10-22T10:13:04.500Z,9.35
2022-10-22T10:15:37.401Z,9.73
2022-10-22T10:18:17.420Z,10.00
2022-10-22T10:20:51.668Z,11.13
2022-10-22T10:23:24.533Z,8.85
2022-10-22T10:25:59.063Z,9.98
2022-10-22T10:28:35.770Z,9.43
2022-10-22T10:31:03.216Z,22.77
2022-10-22T10:33:38.468Z,8.70
2022-10-22T10:36:26.200Z,8.63
2022-10-22T10:38:56.574Z,8.00
2022-10-22T10:41:31.692Z,22.45
2022-10-22T10:44:18.064Z,8.30
2022-10-22T10:46:54.470Z,8.38
2022-10-22T10:49:30.801Z,23.33
2022-10-22T10:52:07.604Z,10.63
2022-10-22T10:54:44.670Z,8.77
2022-10-22T10:57:12.136Z,10.32
2022-10-22T11:00:02.075Z,14.15
2022-10-22T11:02:38.379Z,10.18
2022-10-22T11:05:08.963Z,8.50
2022-10-22T11:07:39.838Z,7.63
2022-10-22T11:10:13.025Z,7.90
2022-10-22T11:12:43.072Z,6.80
2022-10-22T11:15:32.260Z,7.72
2022-10-22T11:18:06.127Z,8.02
2022-10-22T11:20:41.961Z,7.40
2022-10-22T11:23:32.395Z,7.00
2022-10-22T11:26:00.360Z,6.68
2022-10-22T11:28:30.673Z,7.25
2022-10-22T11:31:01.162Z,7.30
2022-10-22T11:33:34.576Z,6.75
2022-10-22T11:36:03.396Z,7.07
2022-10-22T11:38:32.878Z,7.15
2022-10-22T11:41:03.768Z,7.25
2022-10-22T11:43:36.357Z,8.30
2022-10-22T11:46:10.077Z,7.03
2022-10-22T11:48:38.370Z,6.70
2022-10-22T11:51:25.961Z,7.05
2022-10-22T11:53:57.186Z,6.32
2022-10-22T11:56:28.412Z,9.02
2022-10-22T11:58:56.099Z,7.07
2022-10-22T12:01:27.848Z,6.90
2022-10-22T12:03:58.326Z,6.95
2022-10-22T12:06:26.976Z,7.60
2022-10-22T12:08:54.651Z,6.72
2022-10-22T12:11:50.071Z,6.90
2022-10-22T12:14:28.063Z,8.40
2022-10-22T12:17:00.151Z,8.45
2022-10-22T12:19:28.889Z,6.30
2022-10-22T12:22:17.652Z,6.28
2022-10-22T12:24:47.046Z,6.53
2022-10-22T12:27:28.086Z,6.72
2022-10-22T12:29:56.599Z,6.70
2022-10-22T12:32:24.471Z,7.15
2022-10-22T12:34:52.797Z,7.10
2022-10-22T12:37:20.486Z,6.63
2022-10-22T12:39:48.419Z,7.07
2022-10-22T12:42:17.233Z,7.35
2022-10-22T12:44:45.206Z,43.85
2022-10-22T12:47:19.355Z,6.85
2022-10-22T12:49:48.099Z,6.95
2022-10-22T12:52:23.606Z,6.38
2022-10-22T12:54:52.775Z,7.35
2022-10-22T12:57:20.648Z,8.85
2022-10-22T12:59:50.133Z,7.53
2022-10-22T13:02:24.905Z,6.15
2022-10-22T13:05:15.010Z,6.63
2022-10-22T13:07:42.983Z,5.90
2022-10-22T13:10:20.465Z,6.15
2022-10-22T13:12:51.180Z,6.03
2022-10-22T13:15:33.997Z,6.22
2022-10-22T13:18:07.693Z,6.75
2022-10-22T13:20:37.505Z,6.88
2022-10-22T13:23:06.425Z,9.18
2022-10-22T13:25:35.603Z,7.57
2022-10-22T13:28:11.830Z,7.68
2022-10-22T13:30:39.851Z,7.95
2022-10-22T13:33:28.539Z,7.93
2022-10-22T13:35:57.200Z,8.45
2022-10-22T13:38:25.692Z,7.80
2022-10-22T13:40:53.175Z,7.32
2022-10-22T13:43:20.580Z,8.63
2022-10-22T13:45:49.463Z,8.65
2022-10-22T13:48:19.230Z,7.53
2022-10-22T13:50:46.935Z,7.32
2022-10-22T13:53:24.923Z,6.50
2022-10-22T13:55:52.365Z,6.47
2022-10-22T13:58:27.208Z,6.88
2022-10-22T14:03:25.910Z,6.68
2022-10-22T14:05:53.483Z,7.25
2022-10-22T14:08:21.750Z,6.80
2022-10-22T14:10:49.178Z,7.38
2022-10-22T14:13:17.643Z,9.13
2022-10-22T14:15:46.522Z,7.50
2022-10-22T14:18:16.556Z,7.35
2022-10-22T14:20:44.066Z,7.95
2022-10-22T14:25:44.969Z,10.00
2022-10-22T14:28:12.403Z,10.63
2022-10-22T14:30:40.302Z,9.05
2022-10-22T14:33:14.046Z,10.05
2022-10-22T14:35:41.497Z,11.13
2022-10-22T14:38:08.964Z,12.35
2022-10-22T14:40:38.992Z,13.43
2022-10-22T14:43:06.579Z,11.32
2022-10-22T14:45:34.005Z,10.55
2022-10-22T14:48:02.050Z,12.13
2022-10-22T14:50:29.576Z,16.40
2022-10-22T14:52:58.911Z,15.98
2022-10-22T14:55:27.259Z,19.42
2022-10-22T14:57:54.811Z,17.73
2022-10-22T15:00:22.324Z,16.42
2022-10-22T15:02:49.843Z,15.02
2022-10-22T15:05:17.883Z,13.68
2022-10-22T15:07:46.193Z,14.20
2022-10-22T15:10:13.665Z,14.73
2022-10-22T15:12:41.151Z,14.32
2022-10-22T15:15:08.775Z,11.45
2022-10-22T15:17:36.274Z,11.45
2022-10-22T15:20:05.509Z,11.05
2022-10-22T15:22:35.402Z,10.73
2022-10-22T15:25:04.529Z,11.02
2022-10-22T15:27:31.964Z,11.23
2022-10-22T15:29:59.779Z,10.77
2022-10-22T15:32:29.167Z,11.10
2022-10-22T15:34:56.900Z,17.08
2022-10-22T15:37:24.342Z,17.58
2022-10-22T15:39:51.934Z,17.27
2022-10-22T15:42:19.612Z,17.75
2022-10-22T15:44:47.112Z,10.88
2022-10-22T15:47:14.593Z,13.73
2022-10-22T15:49:42.155Z,14.23
2022-10-22T15:52:09.963Z,15.38
2022-10-22T15:54:37.464Z,17.90
2022-10-22T15:57:08.719Z,19.33
2022-10-22T15:59:36.384Z,18.20
2022-10-22T16:02:04.031Z,15.82
2022-10-22T16:04:31.482Z,16.00
2022-10-22T16:06:58.948Z,15.48
2022-10-22T16:09:27.745Z,15.35
2022-10-22T16:11:56.399Z,16.02
2022-10-22T16:14:24.174Z,15.10
2022-10-22T16:16:53.309Z,15.05
2022-10-22T16:19:22.031Z,14.70
2022-10-22T16:21:51.209Z,14.93
2022-10-22T16:24:19.100Z,13.50
2022-10-22T16:26:47.511Z,14.05
2022-10-22T16:29:15.179Z,13.73
2022-10-22T16:31:45.667Z,13.18
2022-10-22T16:34:13.458Z,12.30
2022-10-22T16:36:40.935Z,11.98
2022-10-22T16:39:08.841Z,13.30
2022-10-22T16:41:36.949Z,11.07
2022-10-22T16:44:07.874Z,11.02
2022-10-22T16:46:38.450Z,9.93
2022-10-22T16:49:06.632Z,10.10
2022-10-22T16:51:34.496Z,8.38
2022-10-22T16:54:03.649Z,8.80
2022-10-22T16:56:36.422Z,8.43
2022-10-22T16:59:03.973Z,8.60
2022-10-22T17:01:31.447Z,8.57
2022-10-22T17:04:03.431Z,9.77
2022-10-22T17:06:31.117Z,9.68
2022-10-22T17:08:58.657Z,10.20
2022-10-22T17:11:26.383Z,9.68
2022-10-22T17:13:54.586Z,10.57
2022-10-22T17:16:23.691Z,9.15
2022-10-22T17:18:51.349Z,9.38
2022-10-22T17:21:19.735Z,9.55
2022-10-22T17:23:47.832Z,10.15
2022-10-22T17:26:22.801Z,10.43
2022-10-22T17:28:50.553Z,10.90
2022-10-22T17:31:25.374Z,10.23
2022-10-22T17:33:53.893Z,9.90
2022-10-22T17:36:22.850Z,10.77
2022-10-22T17:38:51.387Z,11.00
2022-10-22T17:41:20.472Z,11.30
2022-10-22T17:43:48.813Z,11.68
2022-10-22T17:46:18.381Z,11.25
2022-10-22T17:48:46.171Z,11.27
2022-10-22T17:51:14.203Z,11.68
2022-10-22T17:53:50.230Z,11.45
2022-10-22T17:56:18.993Z,12.18
2022-10-22T17:58:46.444Z,11.55
2022-10-22T18:01:21.078Z,11.65
2022-10-22T18:03:48.638Z,12.40
2022-10-22T18:06:16.622Z,11.80
2022-10-22T18:08:44.287Z,12.10
2022-10-22T18:11:13.548Z,12.05
2022-10-22T18:13:40.977Z,12.68
2022-10-22T18:16:08.565Z,13.30
2022-10-22T18:18:36.743Z,12.88
2022-10-22T18:21:05.171Z,13.23
2022-10-22T18:23:33.442Z,14.73
2022-10-22T18:26:00.822Z,14.73
2022-10-22T18:28:28.283Z,15.57
2022-10-22T18:30:55.766Z,15.90
2022-10-22T18:33:24.253Z,16.23
2022-10-22T18:35:52.615Z,15.57
2022-10-22T18:38:23.738Z,15.63
2022-10-22T18:40:51.178Z,16.50
2022-10-22T18:43:19.060Z,16.08
2022-10-22T18:45:47.648Z,15.98
2022-10-22T18:48:16.474Z,15.13
2022-10-22T18:50:44.329Z,15.50
2022-10-22T18:53:13.506Z,16.15
2022-10-22T18:55:41.570Z,15.45
2022-10-22T18:58:08.964Z,16.15
2022-10-22T19:00:36.899Z,18.38
2022-10-22T19:03:04.399Z,15.20
2022-10-22T19:05:32.068Z,16.33
2022-10-22T19:07:59.517Z,16.58
2022-10-22T19:10:27.090Z,16.90
2022-10-22T19:12:54.498Z,16.30
2022-10-22T19:15:22.026Z,16.77
2022-10-22T19:17:49.414Z,19.10
2022-10-22T19:20:16.908Z,17.50
2022-10-22T19:22:44.409Z,19.80
2022-10-22T19:25:12.175Z,20.92
2022-10-22T19:27:40.282Z,19.02
2022-10-22T19:30:08.222Z,20.40
2022-10-22T19:32:35.754Z,20.48
2022-10-22T19:35:03.226Z,17.70
2022-10-22T19:37:30.735Z,17.70
2022-10-22T19:39:58.224Z,17.45
2022-10-22T19:42:25.673Z,18.50
2022-10-22T19:44:53.222Z,17.85
2022-10-22T19:47:21.914Z,18.90
2022-10-22T19:49:49.275Z,19.38
2022-10-22T19:52:16.991Z,18.15
2022-10-22T19:54:46.090Z,16.88
2022-10-22T19:57:17.934Z,18.10
2022-10-22T19:59:46.010Z,17.38
2022-10-22T20:02:17.622Z,18.08
2022-10-22T20:04:49.222Z,17.38
2022-10-22T20:07:17.612Z,17.85
2022-10-22T20:09:45.089Z,16.50
2022-10-22T20:12:12.560Z,16.20
2022-10-22T20:14:40.568Z,17.23
2022-10-22T20:17:08.126Z,17.35
2022-10-22T20:19:35.511Z,18.30
2022-10-22T20:22:02.968Z,18.13
2022-10-22T20:24:30.508Z,21.88
2022-10-22T20:26:57.945Z,22.35
2022-10-22T20:29:25.453Z,22.90
2022-10-22T20:31:53.687Z,23.80
2022-10-22T20:34:21.097Z,25.02
2022-10-22T20:36:48.688Z,23.92
2022-10-22T20:39:16.812Z,23.77
2022-10-22T20:41:44.301Z,24.98
2022-10-22T20:44:13.515Z,24.42
2022-10-22T20:46:40.986Z,25.02
2022-10-22T20:49:10.058Z,24.45
2022-10-22T20:51:38.006Z,22.48
2022-10-22T20:54:06.430Z,25.00
2022-10-22T20:56:34.270Z,24.67
2022-10-22T20:59:05.676Z,23.85
2022-10-22T21:01:34.984Z,21.40
2022-10-22T21:04:02.524Z,20.55
2022-10-22T21:06:30.222Z,18.50
2022-10-22T21:08:57.684Z,17.88
2022-10-22T21:11:25.260Z,16.20
2022-10-22T21:13:52.628Z,16.58
2022-10-22T21:16:20.131Z,15.85
2022-10-22T21:18:48.404Z,16.85
2022-10-22T21:21:17.685Z,16.85
2022-10-22T21:23:45.198Z,18.52
2022-10-22T21:26:12.689Z,19.30
2022-10-22T21:28:40.204Z,19.88
2022-10-22T21:31:10.137Z,19.95
2022-10-22T21:33:40.560Z,19.80
2022-10-22T21:36:09.173Z,19.90
2022-10-22T21:38:37.361Z,19.15
2022-10-22T21:41:05.972Z,21.05
2022-10-22T21:43:33.400Z,21.55
2022-10-22T21:46:07.790Z,20.90
2022-10-22T21:48:36.118Z,20.35
2022-10-22T21:51:08.051Z,21.70
2022-10-22T21:53:35.687Z,21.50
2022-10-22T21:56:03.191Z,22.35
2022-10-22T21:58:30.718Z,22.75
2022-10-22T22:00:58.819Z,20.95
2022-10-22T22:03:26.348Z,20.60
2022-10-22T22:06:04.007Z,20.08
2022-10-22T22:08:32.547Z,21.80
2022-10-22T22:11:04.745Z,21.73
2022-10-22T22:13:32.571Z,21.98
2022-10-22T22:16:03.946Z,21.77
2022-10-22T22:18:31.596Z,21.65
2022-10-22T22:20:59.375Z,21.23
2022-10-22T22:23:27.061Z,22.30
2022-10-22T22:25:54.449Z,21.90
2022-10-22T22:28:21.846Z,21.17
2022-10-22T22:30:49.297Z,20.92
2022-10-22T22:33:16.731Z,22.05
2022-10-22T22:35:44.093Z,21.25
2022-10-22T22:38:11.510Z,20.77
2022-10-22T22:40:39.537Z,21.85
2022-10-22T22:43:06.980Z,21.02
2022-10-22T22:45:35.609Z,21.05
2022-10-22T22:48:03.547Z,20.10
2022-10-22T22:50:31.391Z,20.98
2022-10-22T22:52:58.863Z,19.52
2022-10-22T22:55:26.789Z,19.58
2022-10-22T22:57:54.218Z,18.80
2022-10-22T23:00:21.562Z,19.90
2022-10-22T23:02:48.989Z,19.65
2022-10-22T23:05:16.414Z,18.52
2022-10-22T23:07:43.842Z,19.38
2022-10-22T23:10:11.235Z,17.45
2022-10-22T23:12:38.855Z,16.52
2022-10-22T23:15:06.615Z,16.40
2022-10-22T23:17:34.114Z,15.60
2022-10-22T23:20:01.490Z,15.85
2022-10-22T23:22:28.888Z,16.90
2022-10-22T23:24:56.253Z,17.08
2022-10-22T23:27:23.698Z,16.35
2022-10-22T23:29:51.078Z,18.38
2022-10-22T23:32:18.557Z,16.48
2022-10-22T23:34:45.945Z,16.58
2022-10-22T23:37:13.487Z,17.95
2022-10-22T23:39:40.926Z,18.55
2022-10-22T23:42:08.375Z,18.95
2022-10-22T23:44:35.839Z,18.75
2022-10-22T23:47:03.308Z,20.42
2022-10-22T23:49:30.769Z,19.80
2022-10-22T23:51:58.232Z,18.90
2022-10-22T23:54:25.587Z,19.95
2022-10-22T23:56:53.034Z,19.08
2022-10-22T23:59:21.258Z,19.83
